Toledo, OH (43606)

9:24 AM EST on November 22, 2014 (GMT -0500)
West Toledo | Change Station
CLOSE
Current Station
Personal Weather Station
Location: Toledo, OH
Elevation: 660 ft
Nearby Weather Stations
Active Advisory: Freezing Rain Advisory Active Notice: Record Report

Elev 660 ft 41.70 °N, 83.61 °W | Updated 4 minutes ago

Overcast
Overcast
34.3 °F
Feels Like 34 °F
N
1.0
Wind Variable Wind from WNW
Gusts 1.0 mph

Today
High -- | Low -- °F
--% Chance of Precip.
Yesterday
High -- | Low -- °F
Precip. -- in
7:31 AM 5:08 PM
New Moon, 0% visible
Pressure 30.18 in
Visibility 6.0 miles
Clouds Scattered Clouds 3500 ft
Mostly Cloudy 4900 ft
Overcast 10000 ft
Windchill 34 °F
Dew Point 32 °F
Humidity 91%
Rainfall 0.00 in
Snow Depth Not available.
UV 0 out of 12
Pollen .10 out of 12
Air Quality Not available.
Flu Activity Not available.
METAR KTDZ 221353Z AUTO 21009KT 6SM BR SCT035 BKN049 OVC100 02/M01 A3015 RMK AO2 RAB1256E30FZRAE1256 SLP219 P0001 I1000 T00171006 TSNO

More Conditions Fewer Conditions

Pressure 30.18 in
Visibility 6.0 miles
Clouds Scattered Clouds 3500 ft
Mostly Cloudy 4900 ft
Overcast 10000 ft
Windchill 34 °F
Dew Point 32 °F
Humidity 91%
Rainfall 0.00 in
Snow Depth Not available.
UV 0 out of 12
Pollen .10 out of 12
Air Quality Not available.
Flu Activity Not available.
METAR KTDZ 221353Z AUTO 21009KT 6SM BR SCT035 BKN049 OVC100 02/M01 A3015 RMK AO2 RAB1256E30FZRAE1256 SLP219 P0001 I1000 T00171006 TSNO

More Conditions Fewer Conditions

10-Day Weather Forecast

Almanac

Astronomy

Nov. 22, 2014 Rise Set
Actual Time
Civil Twilight
Nautical Twilight
Astronomical Twilight
Moon
Length of Visible Light
Length of Day
Tomorrow will be .
, % of the Moon is Illuminated

Today's Extremes

State Highs State Lows

Community

WunderPhotos

Upload Photos

1,772,820 photos uploaded!

WunderBlogs® & News

Nearby

Air Quality

  Air Quality AQ Index Pollutant
Not available.

Snow Depth

Station Depth Elevation

Earthquake Activity

City Distance Mag. Time & Date
Minimum magnitude displayed is 2.5.

Coastal Water Temperatures

Place Temperature

Nearby Weather Stations